createdAt,value
2022-12-04T00:01:35.657Z,2.70
2022-12-04T00:04:02.336Z,2.70
2022-12-04T00:06:29.633Z,2.70
2022-12-04T00:08:56.589Z,2.70
2022-12-04T00:11:24.511Z,2.70
2022-12-04T00:13:51.476Z,2.80
2022-12-04T00:16:19.932Z,2.80
2022-12-04T00:18:46.960Z,2.70
2022-12-04T00:21:15.029Z,2.70
2022-12-04T00:23:41.750Z,2.60
2022-12-04T00:26:27.379Z,2.60
2022-12-04T00:28:59.179Z,2.50
2022-12-04T00:31:27.132Z,2.50
2022-12-04T00:33:53.922Z,2.50
2022-12-04T00:36:21.490Z,2.60
2022-12-04T00:38:48.600Z,2.60
2022-12-04T00:41:16.996Z,2.60
2022-12-04T00:43:43.681Z,2.60
2022-12-04T00:46:10.400Z,2.60
2022-12-04T00:48:37.466Z,2.50
2022-12-04T00:51:05.090Z,2.50
2022-12-04T00:53:31.935Z,2.40
2022-12-04T00:55:58.812Z,2.40
2022-12-04T00:58:25.559Z,2.40
2022-12-04T01:01:01.098Z,2.40
2022-12-04T01:03:27.792Z,2.40
2022-12-04T01:05:54.699Z,2.40
2022-12-04T01:08:21.741Z,2.40
2022-12-04T01:10:48.432Z,2.40
2022-12-04T01:13:15.185Z,2.40
2022-12-04T01:15:43.676Z,2.40
2022-12-04T01:18:11.429Z,2.40
2022-12-04T01:20:38.200Z,2.40
2022-12-04T01:23:04.822Z,2.40
2022-12-04T01:25:31.733Z,2.50
2022-12-04T01:27:58.391Z,2.50
2022-12-04T01:30:25.006Z,2.40
2022-12-04T01:32:51.767Z,2.30
2022-12-04T01:35:18.409Z,2.40
2022-12-04T01:37:45.046Z,2.40
2022-12-04T01:40:13.626Z,2.40
2022-12-04T01:42:40.259Z,2.40
2022-12-04T01:45:25.262Z,2.40
2022-12-04T01:47:54.783Z,2.40
2022-12-04T01:50:21.633Z,2.50
2022-12-04T01:52:48.267Z,2.50
2022-12-04T01:55:14.936Z,2.50
2022-12-04T01:57:42.652Z,2.40
2022-12-04T02:00:10.647Z,2.40
2022-12-04T02:02:42.193Z,2.40
2022-12-04T02:05:10.614Z,2.40
2022-12-04T02:07:38.260Z,2.40
2022-12-04T02:10:06.689Z,2.40
2022-12-04T02:12:38.806Z,2.40
2022-12-04T02:15:11.181Z,2.40
2022-12-04T02:17:44.036Z,2.30
2022-12-04T02:20:32.888Z,2.30
2022-12-04T02:23:05.609Z,2.40
2022-12-04T02:25:36.342Z,2.50
2022-12-04T02:28:12.050Z,2.50
2022-12-04T02:30:41.304Z,2.60
2022-12-04T02:33:28.982Z,2.60
2022-12-04T02:36:01.079Z,2.60
2022-12-04T02:38:32.946Z,2.60
2022-12-04T02:41:38.297Z,2.60
2022-12-04T02:44:07.880Z,2.60
2022-12-04T02:46:36.878Z,2.60
2022-12-04T02:49:05.108Z,2.70
2022-12-04T02:51:33.240Z,2.70
2022-12-04T02:54:04.524Z,2.70
2022-12-04T02:56:34.609Z,2.70
2022-12-04T02:59:05.606Z,2.80
2022-12-04T03:01:42.226Z,2.70
2022-12-04T03:04:16.905Z,2.70
2022-12-04T03:06:45.747Z,2.70
2022-12-04T03:09:17.813Z,2.70
2022-12-04T03:11:46.718Z,2.70
2022-12-04T03:14:24.906Z,2.70
2022-12-04T03:16:53.767Z,2.70
2022-12-04T03:19:23.802Z,2.60
2022-12-04T03:21:59.934Z,2.60
2022-12-04T03:24:26.526Z,2.60
2022-12-04T03:27:04.565Z,2.60
2022-12-04T03:29:39.179Z,2.60
2022-12-04T03:32:12.020Z,2.60
2022-12-04T03:34:38.724Z,2.60
2022-12-04T03:37:10.433Z,2.60
2022-12-04T03:39:50.219Z,2.60
2022-12-04T03:42:20.696Z,2.70
2022-12-04T03:44:56.449Z,2.60
2022-12-04T03:47:38.787Z,2.60
2022-12-04T03:50:22.144Z,2.50
2022-12-04T03:52:52.446Z,2.50
2022-12-04T03:55:27.305Z,2.50
2022-12-04T03:57:56.883Z,2.40
2022-12-04T04:00:23.693Z,2.40
2022-12-04T04:02:53.633Z,2.40
2022-12-04T04:05:20.999Z,2.40
2022-12-04T04:08:21.417Z,2.50
2022-12-04T04:10:49.070Z,2.40
2022-12-04T04:13:36.615Z,2.40
2022-12-04T04:16:23.495Z,2.40
2022-12-04T04:19:10.207Z,2.40
2022-12-04T04:21:57.258Z,2.50
2022-12-04T04:24:26.766Z,2.50
2022-12-04T04:26:54.469Z,2.50
2022-12-04T04:29:21.156Z,2.60
2022-12-04T04:31:47.863Z,2.60
2022-12-04T04:34:20.898Z,2.60
2022-12-04T04:36:55.743Z,2.60
2022-12-04T04:39:28.130Z,2.50
2022-12-04T04:41:57.797Z,2.50
2022-12-04T04:44:44.988Z,2.50
2022-12-04T04:47:14.911Z,2.40
2022-12-04T04:49:42.144Z,2.40
2022-12-04T04:52:09.245Z,2.40
2022-12-04T04:54:37.212Z,2.40
2022-12-04T04:57:03.942Z,2.40
2022-12-04T04:59:34.629Z,2.40
2022-12-04T05:02:01.383Z,2.40
2022-12-04T05:04:28.125Z,2.40
2022-12-04T05:06:54.828Z,2.40
2022-12-04T05:09:21.529Z,2.40
2022-12-04T05:11:48.209Z,2.40
2022-12-04T05:14:14.812Z,2.40
2022-12-04T05:16:41.884Z,2.50
2022-12-04T05:19:27.467Z,2.50
2022-12-04T05:21:54.206Z,2.50
2022-12-04T05:24:20.848Z,2.50
2022-12-04T05:26:47.524Z,2.50
2022-12-04T05:29:14.249Z,2.40
2022-12-04T05:31:40.999Z,2.40
2022-12-04T05:34:08.774Z,2.40
2022-12-04T05:36:35.460Z,2.40
2022-12-04T05:39:02.068Z,2.40
2022-12-04T05:41:28.700Z,2.30
2022-12-04T05:43:55.774Z,2.30
2022-12-04T05:46:22.480Z,2.30
2022-12-04T05:48:49.198Z,2.40
2022-12-04T05:51:15.906Z,2.30
2022-12-04T05:53:45.725Z,2.30
2022-12-04T05:56:12.430Z,2.30
2022-12-04T05:58:39.091Z,2.30
2022-12-04T06:01:09.865Z,2.40
2022-12-04T06:03:36.637Z,2.40
2022-12-04T06:06:04.513Z,2.40
2022-12-04T06:08:32.003Z,2.30
2022-12-04T06:10:58.708Z,2.30
2022-12-04T06:13:25.389Z,2.30
2022-12-04T06:15:52.031Z,2.30
2022-12-04T06:18:18.689Z,2.30
2022-12-04T06:20:45.407Z,2.30
2022-12-04T06:23:12.097Z,2.30
2022-12-04T06:25:38.724Z,2.30
2022-12-04T06:28:05.429Z,2.30
2022-12-04T06:30:33.665Z,2.30
2022-12-04T06:33:00.326Z,2.30
2022-12-04T06:35:26.960Z,2.20
2022-12-04T06:37:53.609Z,2.10
2022-12-04T06:40:20.223Z,2.10
2022-12-04T06:42:46.849Z,2.20
2022-12-04T06:45:13.485Z,2.10
2022-12-04T06:47:40.144Z,2.00
2022-12-04T06:50:08.301Z,2.10
2022-12-04T06:52:34.970Z,2.10
2022-12-04T06:55:01.763Z,2.00
2022-12-04T06:57:28.356Z,2.00
2022-12-04T06:59:55.386Z,1.90
2022-12-04T07:02:22.388Z,1.90
2022-12-04T07:04:49.097Z,1.90
2022-12-04T07:07:15.752Z,1.90
2022-12-04T07:09:42.440Z,1.90
2022-12-04T07:12:09.045Z,2.00
2022-12-04T07:14:35.814Z,2.00
2022-12-04T07:17:02.565Z,2.10
2022-12-04T07:19:29.207Z,2.20
2022-12-04T07:21:55.878Z,2.30
2022-12-04T07:24:22.549Z,2.10
2022-12-04T07:26:49.187Z,2.20
2022-12-04T07:29:15.797Z,2.20
2022-12-04T07:31:44.416Z,2.20
2022-12-04T07:34:12.303Z,2.00
2022-12-04T07:36:39.469Z,2.00
2022-12-04T07:39:06.093Z,2.00
2022-12-04T07:41:32.712Z,2.00
2022-12-04T07:43:59.336Z,2.10
2022-12-04T07:46:27.153Z,2.10
2022-12-04T07:48:58.057Z,2.00
2022-12-04T07:51:25.872Z,1.90
2022-12-04T07:53:53.362Z,1.90
2022-12-04T07:56:20.179Z,1.90
2022-12-04T07:58:47.145Z,1.90
2022-12-04T08:01:15.660Z,2.10
2022-12-04T08:03:47.540Z,2.20
2022-12-04T08:06:16.463Z,2.20
2022-12-04T08:08:43.162Z,2.20
2022-12-04T08:11:11.126Z,2.20
2022-12-04T08:13:37.785Z,2.20
2022-12-04T08:16:05.267Z,2.20
2022-12-04T08:18:32.216Z,2.30
2022-12-04T08:21:12.514Z,2.30
2022-12-04T08:23:40.121Z,2.20
2022-12-04T08:26:06.973Z,2.10
2022-12-04T08:28:34.312Z,2.20
2022-12-04T08:31:08.211Z,2.20
2022-12-04T08:33:35.271Z,2.30
2022-12-04T08:36:02.131Z,2.20
2022-12-04T08:38:28.740Z,2.20
2022-12-04T08:40:59.021Z,2.20
2022-12-04T08:43:25.678Z,2.20
2022-12-04T08:45:59.544Z,2.20
2022-12-04T08:48:26.404Z,2.30
2022-12-04T08:50:53.317Z,2.30
2022-12-04T08:53:19.984Z,2.30
2022-12-04T08:55:46.649Z,2.40
2022-12-04T08:58:13.393Z,2.50
2022-12-04T09:00:40.368Z,2.50
2022-12-04T09:03:07.026Z,2.50
2022-12-04T09:05:33.701Z,2.50
2022-12-04T09:08:00.365Z,2.50
2022-12-04T09:10:28.085Z,2.60
2022-12-04T09:12:54.769Z,2.60
2022-12-04T09:15:21.377Z,2.60
2022-12-04T09:17:48.035Z,2.60
2022-12-04T09:20:15.090Z,2.60
2022-12-04T09:23:02.738Z,2.60
2022-12-04T09:25:28.347Z,2.60
2022-12-04T09:27:55.016Z,2.70
2022-12-04T09:30:21.722Z,2.60
2022-12-04T09:32:48.340Z,2.60
2022-12-04T09:35:21.182Z,2.70
2022-12-04T09:37:47.849Z,2.60
2022-12-04T09:40:33.439Z,2.60
2022-12-04T09:43:09.545Z,2.70
2022-12-04T09:45:44.501Z,2.80
2022-12-04T09:48:12.338Z,2.80
2022-12-04T09:50:43.467Z,2.80
2022-12-04T09:53:25.552Z,2.80
2022-12-04T09:55:58.450Z,2.80
2022-12-04T09:58:39.713Z,2.80
2022-12-04T10:01:06.829Z,2.70
2022-12-04T10:03:33.840Z,2.70
2022-12-04T10:06:05.437Z,2.70
2022-12-04T10:08:35.228Z,2.70
2022-12-04T10:11:01.885Z,2.70
2022-12-04T10:13:43.851Z,2.70
2022-12-04T10:16:19.882Z,2.80
2022-12-04T10:19:05.218Z,2.90
2022-12-04T10:21:34.952Z,2.90
2022-12-04T10:24:04.728Z,2.90
2022-12-04T10:26:37.408Z,2.90
2022-12-04T10:29:06.336Z,2.80
2022-12-04T10:31:34.092Z,2.90
2022-12-04T10:34:11.290Z,2.90
2022-12-04T10:36:39.879Z,2.90
2022-12-04T10:39:10.826Z,2.80
2022-12-04T10:41:47.119Z,2.90
2022-12-04T10:44:15.011Z,2.80
2022-12-04T10:46:45.730Z,2.80
2022-12-04T10:49:21.260Z,2.80
2022-12-04T10:51:48.172Z,2.70
2022-12-04T10:54:17.857Z,2.70
2022-12-04T10:57:10.891Z,2.70
2022-12-04T10:59:48.826Z,2.70
2022-12-04T11:02:15.544Z,2.60
2022-12-04T11:04:42.311Z,2.60
2022-12-04T11:07:16.318Z,2.70
2022-12-04T11:09:43.001Z,2.70
2022-12-04T11:12:18.266Z,2.70
2022-12-04T11:14:47.146Z,2.70
2022-12-04T11:17:18.683Z,2.70
2022-12-04T11:19:45.346Z,2.70
2022-12-04T11:22:16.407Z,2.70
2022-12-04T11:24:43.410Z,2.70
2022-12-04T11:27:21.450Z,2.70
2022-12-04T11:29:48.392Z,2.60
2022-12-04T11:32:24.216Z,2.70
2022-12-04T11:34:58.244Z,2.70
2022-12-04T11:37:38.193Z,2.70
2022-12-04T11:40:18.656Z,2.70
2022-12-04T11:42:58.731Z,2.80
2022-12-04T11:45:34.147Z,2.70
2022-12-04T11:48:02.346Z,2.70
2022-12-04T11:50:47.883Z,2.70
2022-12-04T11:53:17.715Z,2.70
2022-12-04T11:55:58.792Z,2.70
2022-12-04T11:58:37.370Z,2.80
2022-12-04T12:01:03.984Z,2.70
2022-12-04T12:03:35.736Z,2.70
2022-12-04T12:06:22.684Z,2.60
2022-12-04T12:08:58.463Z,2.60
2022-12-04T12:11:34.550Z,2.60
2022-12-04T12:14:19.895Z,2.70
2022-12-04T12:16:55.588Z,2.70
2022-12-04T12:19:40.190Z,2.70
2022-12-04T12:22:14.186Z,2.70
2022-12-04T12:24:40.761Z,2.70
2022-12-04T12:27:26.270Z,2.70
2022-12-04T12:29:57.412Z,2.70
2022-12-04T12:32:33.492Z,2.70
2022-12-04T12:35:32.644Z,2.70
2022-12-04T12:38:06.738Z,2.70
2022-12-04T12:40:55.569Z,2.80
2022-12-04T12:43:32.615Z,2.80
2022-12-04T12:46:02.524Z,2.90
2022-12-04T12:49:31.603Z,2.90
2022-12-04T12:53:05.424Z,2.90
2022-12-04T12:55:24.089Z,2.90
2022-12-04T12:57:59.449Z,2.90
2022-12-04T13:00:26.368Z,3.00
2022-12-04T13:02:53.219Z,3.00
2022-12-04T13:08:37.016Z,2.90
2022-12-04T13:11:14.514Z,3.00
2022-12-04T13:13:44.378Z,3.00
2022-12-04T13:16:43.640Z,3.10
2022-12-04T13:19:18.168Z,3.10
2022-12-04T13:22:03.620Z,3.20
2022-12-04T13:24:49.289Z,3.20
2022-12-04T13:27:28.186Z,3.20
2022-12-04T13:30:07.313Z,3.20
2022-12-04T13:32:49.409Z,3.20
2022-12-04T13:35:28.445Z,3.20
2022-12-04T13:38:17.685Z,3.20
2022-12-04T13:40:47.882Z,3.30
2022-12-04T13:43:14.538Z,3.20
2022-12-04T13:45:41.338Z,3.30
2022-12-04T13:48:12.741Z,3.30
2022-12-04T13:50:40.181Z,3.40
2022-12-04T13:53:37.846Z,3.50
2022-12-04T13:56:08.798Z,3.40
2022-12-04T13:59:09.129Z,3.40
2022-12-04T14:01:41.692Z,3.40
2022-12-04T14:04:22.096Z,3.40
2022-12-04T14:06:50.203Z,3.40
2022-12-04T14:09:25.000Z,3.30
2022-12-04T14:12:17.622Z,3.40
2022-12-04T14:14:58.543Z,3.40
2022-12-04T14:17:27.317Z,3.40
2022-12-04T14:20:01.793Z,3.40
2022-12-04T14:22:34.672Z,3.30
2022-12-04T14:25:13.628Z,3.30
2022-12-04T14:27:53.079Z,3.40
2022-12-04T14:30:20.103Z,3.40
2022-12-04T14:32:48.273Z,3.40
2022-12-04T14:36:09.514Z,3.40
2022-12-04T14:38:17.023Z,3.30
2022-12-04T14:40:51.447Z,3.30
2022-12-04T14:43:22.750Z,3.30
2022-12-04T14:45:57.304Z,3.30
2022-12-04T14:48:42.851Z,3.40
2022-12-04T14:51:18.953Z,3.40
2022-12-04T14:54:06.552Z,3.40
2022-12-04T14:56:58.145Z,3.40
2022-12-04T14:59:29.806Z,3.40
2022-12-04T15:01:56.532Z,3.40
2022-12-04T15:04:26.165Z,3.30
2022-12-04T15:06:59.669Z,3.30
2022-12-04T15:09:46.100Z,3.20
2022-12-04T15:12:35.404Z,3.20
2022-12-04T15:15:17.602Z,3.20
2022-12-04T15:18:02.299Z,3.20
2022-12-04T15:20:47.432Z,3.20
2022-12-04T15:23:19.478Z,3.10
2022-12-04T15:25:47.519Z,3.10
2022-12-04T15:28:16.672Z,3.10
2022-12-04T15:30:44.036Z,3.00
2022-12-04T15:33:31.146Z,2.90
2022-12-04T15:36:00.152Z,2.90
2022-12-04T15:38:28.979Z,2.90
2022-12-04T15:40:57.029Z,2.90
2022-12-04T15:43:45.239Z,2.90
2022-12-04T15:46:15.695Z,2.90
2022-12-04T15:48:47.587Z,2.90
2022-12-04T15:51:15.484Z,2.90
2022-12-04T15:53:46.281Z,2.90
2022-12-04T15:56:28.026Z,2.80
2022-12-04T16:09:28.329Z,2.70
2022-12-04T16:12:02.438Z,2.70
2022-12-04T16:14:41.937Z,2.70
2022-12-04T16:17:12.604Z,2.70
2022-12-04T16:19:45.930Z,2.60
2022-12-04T16:22:19.414Z,2.70
2022-12-04T16:24:51.193Z,2.60
2022-12-04T16:30:46.030Z,2.60
2022-12-04T16:33:13.358Z,2.50
2022-12-04T16:35:40.027Z,2.50
2022-12-04T16:38:06.734Z,2.50
2022-12-04T16:40:35.478Z,2.50
2022-12-04T16:43:12.633Z,2.60
2022-12-04T16:45:42.371Z,2.60
2022-12-04T16:48:18.479Z,2.60
2022-12-04T16:50:45.589Z,2.60
2022-12-04T16:53:15.104Z,2.50
2022-12-04T16:55:44.782Z,2.50
2022-12-04T17:01:59.083Z,2.40
2022-12-04T17:04:33.027Z,2.40
2022-12-04T17:07:03.977Z,2.40
2022-12-04T17:09:30.762Z,2.40
2022-12-04T17:12:11.787Z,2.40
2022-12-04T17:15:15.884Z,2.40
2022-12-04T17:20:27.946Z,2.60
2022-12-04T17:22:54.646Z,2.60
2022-12-04T17:25:24.643Z,2.60
2022-12-04T17:27:58.089Z,2.60
2022-12-04T17:30:37.816Z,2.70
2022-12-04T17:33:04.829Z,3.00
2022-12-04T17:35:33.475Z,3.00
2022-12-04T17:38:23.620Z,3.00
2022-12-04T17:41:04.189Z,3.00
2022-12-04T17:43:46.902Z,3.40
2022-12-04T17:46:15.496Z,3.40
2022-12-04T17:48:43.498Z,3.30
2022-12-04T17:51:11.611Z,3.30
2022-12-04T17:53:38.579Z,3.40
2022-12-04T17:56:10.077Z,3.70
2022-12-04T17:58:36.988Z,3.60
2022-12-04T18:01:08.078Z,3.50
2022-12-04T18:03:35.412Z,3.50
2022-12-04T18:06:11.000Z,3.50
2022-12-04T18:08:37.655Z,3.70
2022-12-04T18:11:04.730Z,3.80
2022-12-04T18:13:31.366Z,3.80
2022-12-04T18:16:03.903Z,3.70
2022-12-04T18:18:31.117Z,3.70
2022-12-04T18:21:05.033Z,3.70
2022-12-04T18:23:31.850Z,4.00
2022-12-04T18:25:59.707Z,4.00
2022-12-04T18:28:26.628Z,3.80
2022-12-04T18:30:53.387Z,3.60
2022-12-04T18:33:20.129Z,3.50
2022-12-04T18:35:54.255Z,3.70
2022-12-04T18:38:21.611Z,3.80
2022-12-04T18:40:48.319Z,3.80
2022-12-04T18:43:15.673Z,3.90
2022-12-04T18:45:46.712Z,3.80
2022-12-04T18:48:14.919Z,3.90
2022-12-04T18:50:41.850Z,3.80
2022-12-04T18:53:08.496Z,3.70
2022-12-04T18:55:36.040Z,3.60
2022-12-04T18:58:02.934Z,3.70
2022-12-04T19:00:30.393Z,3.60
2022-12-04T19:02:58.170Z,3.60
2022-12-04T19:05:24.869Z,3.60
2022-12-04T19:07:52.523Z,3.60
2022-12-04T19:10:19.503Z,3.60
2022-12-04T19:13:02.751Z,3.50
2022-12-04T19:15:29.423Z,3.50
2022-12-04T19:17:56.101Z,3.50
2022-12-04T19:20:22.725Z,3.50
2022-12-04T19:22:49.468Z,3.50
2022-12-04T19:25:16.201Z,3.50
2022-12-04T19:27:42.891Z,3.50
2022-12-04T19:30:10.736Z,3.60
2022-12-04T19:32:37.535Z,3.60
2022-12-04T19:35:04.319Z,3.50
2022-12-04T19:37:31.039Z,3.50
2022-12-04T19:39:58.203Z,3.50
2022-12-04T19:42:25.147Z,3.50
2022-12-04T19:44:51.774Z,3.50
2022-12-04T19:47:18.712Z,3.50
2022-12-04T19:49:46.647Z,3.50
2022-12-04T19:52:13.598Z,3.50
2022-12-04T19:54:40.607Z,3.50
2022-12-04T19:57:07.520Z,3.60
2022-12-04T19:59:37.667Z,3.60
2022-12-04T20:02:09.311Z,3.60
2022-12-04T20:04:37.191Z,3.60
2022-12-04T20:07:05.209Z,3.60
2022-12-04T20:09:32.318Z,3.60
2022-12-04T20:11:59.031Z,3.60
2022-12-04T20:14:25.695Z,3.60
2022-12-04T20:16:52.363Z,3.70
2022-12-04T20:19:19.517Z,3.70
2022-12-04T20:21:46.315Z,3.70
2022-12-04T20:24:14.641Z,3.70
2022-12-04T20:26:42.071Z,3.70
2022-12-04T20:29:13.000Z,3.70
2022-12-04T20:31:40.700Z,3.70
2022-12-04T20:34:08.714Z,3.70
2022-12-04T20:36:36.571Z,3.70
2022-12-04T20:39:03.874Z,3.70
2022-12-04T20:41:31.451Z,3.70
2022-12-04T20:44:02.369Z,3.70
2022-12-04T20:46:33.662Z,3.70
2022-12-04T20:49:01.927Z,3.70
2022-12-04T20:51:29.959Z,3.70
2022-12-04T20:54:00.173Z,3.70
2022-12-04T20:56:29.773Z,3.80
2022-12-04T20:59:00.693Z,3.80
2022-12-04T21:01:28.069Z,3.80
2022-12-04T21:03:55.487Z,3.80
2022-12-04T21:06:28.427Z,3.80
2022-12-04T21:09:08.165Z,3.80
2022-12-04T21:11:34.891Z,3.80
2022-12-04T21:14:20.848Z,3.80
2022-12-04T21:16:49.602Z,4.00
2022-12-04T21:19:17.677Z,3.90
2022-12-04T21:22:08.137Z,3.90
2022-12-04T21:24:38.800Z,3.90
2022-12-04T21:27:13.362Z,3.90
2022-12-04T21:29:43.982Z,3.80
2022-12-04T21:32:10.628Z,3.80
2022-12-04T21:34:37.336Z,3.70
2022-12-04T21:37:03.957Z,3.70
2022-12-04T21:39:30.598Z,3.70
2022-12-04T21:42:16.148Z,3.70
2022-12-04T21:44:42.776Z,3.70
2022-12-04T21:47:09.481Z,3.90
2022-12-04T21:49:36.107Z,4.00
2022-12-04T21:52:05.793Z,3.90
2022-12-04T21:54:38.540Z,3.80
2022-12-04T21:57:05.209Z,3.80
2022-12-04T21:59:31.865Z,3.80
2022-12-04T22:01:58.590Z,3.80
2022-12-04T22:04:25.253Z,3.70
2022-12-04T22:06:54.373Z,3.70
2022-12-04T22:09:21.084Z,3.70
2022-12-04T22:11:49.959Z,3.70
2022-12-04T22:14:18.934Z,3.60
2022-12-04T22:16:53.072Z,3.60
2022-12-04T22:19:19.717Z,3.70
2022-12-04T22:21:46.470Z,3.80
2022-12-04T22:24:13.099Z,3.80
2022-12-04T22:26:39.746Z,3.70
2022-12-04T22:29:26.991Z,3.60
2022-12-04T22:31:57.175Z,3.60
2022-12-04T22:34:23.844Z,3.80
2022-12-04T22:36:50.562Z,3.70
2022-12-04T22:39:17.206Z,3.70
2022-12-04T22:41:43.863Z,3.80
2022-12-04T22:44:10.516Z,3.70
2022-12-04T22:46:37.186Z,3.60
2022-12-04T22:49:03.968Z,3.60
2022-12-04T22:51:30.763Z,3.60
2022-12-04T22:53:57.845Z,3.50
2022-12-04T22:56:24.485Z,3.50
2022-12-04T22:58:53.839Z,3.50
2022-12-04T23:01:22.133Z,3.60
2022-12-04T23:03:49.562Z,3.60
2022-12-04T23:06:16.984Z,3.50
2022-12-04T23:08:44.652Z,3.60
2022-12-04T23:11:12.971Z,3.60
2022-12-04T23:13:40.018Z,3.60
2022-12-04T23:16:10.073Z,3.60
2022-12-04T23:18:39.727Z,3.60
2022-12-04T23:21:10.456Z,3.70
2022-12-04T23:23:38.144Z,3.60
2022-12-04T23:26:06.208Z,3.50
2022-12-04T23:28:33.036Z,3.50
2022-12-04T23:31:00.177Z,3.40
2022-12-04T23:33:27.487Z,3.40
2022-12-04T23:35:54.764Z,3.40
2022-12-04T23:38:22.414Z,3.40
2022-12-04T23:40:49.262Z,3.50
2022-12-04T23:43:16.338Z,3.50
2022-12-04T23:45:43.687Z,3.40
2022-12-04T23:48:10.442Z,3.40
2022-12-04T23:50:37.236Z,3.40
2022-12-04T23:53:03.893Z,3.40
2022-12-04T23:55:34.386Z,3.40
2022-12-04T23:58:01.809Z,3.50
